Time;durP1;ratioP1;P1;durP2;ratioP2;P2;SDS_P1;SDS_P2;PMS_P1;PMS_P2;Temp;Humidity;BMP_temperature;BMP_pressure;BME280_temperature;BME280_humidity;BME280_pressure;Samples;Min_cycle;Max_cycle;Signal;HPM_P1;HPM_P2
2021/08/09 00:00:09;;;;;;;4.88;4.47;;;15.70;99.90;;;;;;4981770;28;20054;-67
2021/08/09 00:02:36;;;;;;;6.00;4.63;;;15.80;99.90;;;;;;4981866;28;20141;-67
2021/08/09 00:05:04;;;;;;;5.32;4.82;;;15.70;99.90;;;;;;4985581;28;20061;-67
2021/08/09 00:07:31;;;;;;;11.48;5.35;;;15.70;99.90;;;;;;4984689;28;20499;-67
2021/08/09 00:09:58;;;;;;;6.53;5.57;;;15.70;99.90;;;;;;4986731;28;20130;-68
2021/08/09 00:12:25;;;;;;;7.72;5.70;;;15.70;99.90;;;;;;4980953;28;20054;-66
2021/08/09 00:14:52;;;;;;;5.05;4.20;;;15.70;99.90;;;;;;4991307;28;20517;-66
2021/08/09 00:17:19;;;;;;;6.20;4.97;;;15.70;99.90;;;;;;4980011;28;20053;-66
2021/08/09 00:19:46;;;;;;;5.60;4.72;;;15.80;99.90;;;;;;4986836;28;20058;-67
2021/08/09 00:22:13;;;;;;;5.00;4.60;;;15.70;99.90;;;;;;4980510;28;20097;-70
2021/08/09 00:24:40;;;;;;;5.30;4.80;;;15.70;99.90;;;;;;4991923;28;20061;-65
2021/08/09 00:27:10;;;;;;;4.95;4.45;;;15.70;99.90;;;;;;4981632;28;20042;-68
2021/08/09 00:29:38;;;;;;;5.05;4.65;;;15.70;99.90;;;;;;4984453;28;20057;-70
2021/08/09 00:32:05;;;;;;;5.15;4.65;;;15.70;99.90;;;;;;4985108;28;20129;-69
2021/08/09 00:34:33;;;;;;;6.55;5.20;;;15.70;99.90;;;;;;4982502;28;20054;-65
2021/08/09 00:37:01;;;;;;;7.28;5.20;;;15.70;99.90;;;;;;4982735;28;20117;-71
2021/08/09 00:39:28;;;;;;;8.80;5.57;;;15.70;99.90;;;;;;4980672;28;20054;-69
2021/08/09 00:41:56;;;;;;;6.93;5.07;;;15.70;99.90;;;;;;4978510;28;20611;-69
2021/08/09 00:44:23;;;;;;;5.70;5.20;;;15.70;99.90;;;;;;4978735;28;20276;-67
2021/08/09 00:46:51;;;;;;;7.97;6.78;;;15.70;99.90;;;;;;4981221;28;20219;-65
2021/08/09 00:49:19;;;;;;;9.27;5.38;;;15.70;99.90;;;;;;4985795;28;20054;-70
2021/08/09 00:51:47;;;;;;;7.32;4.75;;;15.70;99.90;;;;;;4973406;28;20471;-66
2021/08/09 00:54:15;;;;;;;5.65;4.80;;;15.70;99.90;;;;;;4979699;28;20116;-67
2021/08/09 00:56:44;;;;;;;6.93;4.57;;;15.60;99.90;;;;;;4981073;28;20057;-69
2021/08/09 00:59:12;;;;;;;5.35;4.85;;;15.60;99.90;;;;;;4981005;28;20383;-69
2021/08/09 01:01:39;;;;;;;5.53;5.03;;;15.60;99.90;;;;;;4983317;28;20507;-66
2021/08/09 01:04:09;;;;;;;10.82;6.18;;;15.60;99.90;;;;;;4981419;28;20679;-68
2021/08/09 01:06:38;;;;;;;9.52;6.32;;;15.70;99.90;;;;;;4996756;28;20129;-65
2021/08/09 01:09:34;;;;;;;6.30;5.07;;;15.70;99.90;;;;;;4980769;28;20393;-71
2021/08/09 01:12:24;;;;;;;7.30;5.57;;;15.70;99.90;;;;;;4982080;28;20062;-66
2021/08/09 01:15:19;;;;;;;6.68;5.28;;;15.70;99.90;;;;;;4966807;28;20041;-66
2021/08/09 01:17:51;;;;;;;7.03;5.45;;;15.70;99.90;;;;;;4994127;28;20353;-67
2021/08/09 01:20:50;;;;;;;5.97;5.38;;;15.70;99.90;;;;;;4980884;28;20070;-67
2021/08/09 01:23:38;;;;;;;;;;;15.70;99.90;;;;;;4969840;28;20125;-67
2021/08/09 01:26:35;;;;;;;5.45;4.95;;;15.70;99.90;;;;;;4980119;28;20032;-69
2021/08/09 01:29:07;;;;;;;7.28;5.93;;;15.70;99.90;;;;;;4980108;28;20456;-69
2021/08/09 01:31:49;;;;;;;4.85;4.45;;;15.70;99.90;;;;;;4996939;28;20467;-69
2021/08/09 01:34:21;;;;;;;8.23;5.70;;;15.70;99.90;;;;;;4981490;28;20359;-66
2021/08/09 01:36:52;;;;;;;5.55;5.05;;;15.70;99.90;;;;;;4980614;28;20057;-67
2021/08/09 01:39:19;;;;;;;7.32;5.47;;;15.70;99.90;;;;;;4984239;28;20149;-67
2021/08/09 01:41:51;;;;;;;10.13;6.00;;;15.70;99.90;;;;;;4979575;28;20429;-66
2021/08/09 01:44:19;;;;;;;5.72;5.22;;;15.70;99.90;;;;;;4981423;28;20046;-66
2021/08/09 01:46:47;;;;;;;7.00;5.28;;;15.70;99.90;;;;;;4964272;28;20046;-67
2021/08/09 01:49:15;;;;;;;9.05;6.28;;;15.70;99.90;;;;;;4978439;28;20055;-67
2021/08/09 01:51:43;;;;;;;6.18;5.18;;;15.70;99.90;;;;;;4984416;28;20233;-69
2021/08/09 01:54:10;;;;;;;6.10;5.50;;;15.60;99.90;;;;;;4984447;28;20054;-65
2021/08/09 01:56:40;;;;;;;4.72;4.20;;;15.60;99.90;;;;;;4980234;28;20051;-69
2021/08/09 01:59:08;;;;;;;4.20;3.80;;;15.50;99.90;;;;;;4968268;28;20046;-68
2021/08/09 02:01:35;;;;;;;6.00;5.50;;;15.50;99.90;;;;;;4980655;28;20063;-67
2021/08/09 02:04:02;;;;;;;5.68;5.13;;;15.40;99.90;;;;;;4979423;28;20038;-68
2021/08/09 02:06:30;;;;;;;5.47;4.95;;;15.40;99.90;;;;;;4980035;28;20038;-66
2021/08/09 02:09:00;;;;;;;7.88;4.85;;;15.40;99.90;;;;;;4974123;28;20559;-66
2021/08/09 02:11:57;;;;;;;9.10;4.80;;;15.40;99.90;;;;;;4969223;28;20058;-66
2021/08/09 02:14:28;;;;;;;5.85;5.25;;;15.40;99.90;;;;;;4979262;28;20058;-69
2021/08/09 02:17:15;;;;;;;5.38;4.88;;;15.30;99.90;;;;;;4981089;28;20384;-68
2021/08/09 02:19:54;;;;;;;4.78;4.38;;;15.30;99.90;;;;;;4979969;28;20141;-68
2021/08/09 02:22:37;;;;;;;7.25;5.53;;;15.30;99.90;;;;;;4994491;28;20053;-66
2021/08/09 02:25:08;;;;;;;10.35;5.90;;;15.30;99.90;;;;;;4979811;28;20054;-69
2021/08/09 02:27:45;;;;;;;5.47;4.40;;;15.30;99.90;;;;;;4973094;28;20042;-66
2021/08/09 02:30:18;;;;;;;7.72;6.93;;;15.40;99.90;;;;;;4986132;28;20484;-69
2021/08/09 02:32:48;;;;;;;5.28;4.75;;;15.40;99.90;;;;;;4984379;28;20030;-66
2021/08/09 02:35:17;;;;;;;9.40;6.20;;;15.40;99.90;;;;;;4984012;28;20046;-68
2021/08/09 02:37:49;;;;;;;7.47;6.18;;;15.40;99.90;;;;;;4977766;28;20062;-66
2021/08/09 02:40:19;;;;;;;6.55;5.53;;;15.40;99.90;;;;;;4981567;28;20042;-67
2021/08/09 02:42:48;;;;;;;8.75;6.03;;;15.40;99.90;;;;;;4983023;28;20046;-67
2021/08/09 02:45:16;;;;;;;6.53;5.85;;;15.40;99.90;;;;;;4983560;28;20393;-67
2021/08/09 02:47:44;;;;;;;6.70;6.15;;;15.40;99.90;;;;;;4984578;28;20045;-69
2021/08/09 02:50:14;;;;;;;5.43;4.88;;;15.40;99.90;;;;;;4984295;28;20074;-71
2021/08/09 02:52:43;;;;;;;10.38;7.13;;;15.40;99.90;;;;;;4975337;28;20077;-66
2021/08/09 02:55:10;;;;;;;6.22;5.65;;;15.40;99.90;;;;;;4987795;28;20145;-66
2021/08/09 02:57:38;;;;;;;7.45;5.10;;;15.40;99.90;;;;;;4983098;28;20046;-70
2021/08/09 03:00:06;;;;;;;7.97;5.45;;;15.40;99.90;;;;;;4999337;28;20128;-66
2021/08/09 03:02:38;;;;;;;7.47;6.03;;;15.50;99.90;;;;;;4981682;28;20498;-67
2021/08/09 03:05:06;;;;;;;;;;;15.50;99.90;;;;;;4984427;28;20610;-70
2021/08/09 03:07:37;;;;;;;8.98;5.93;;;15.50;99.90;;;;;;4984153;28;19917;-67
2021/08/09 03:10:09;;;;;;;6.07;5.55;;;15.50;99.90;;;;;;4999935;28;20184;-71
2021/08/09 03:12:38;;;;;;;5.22;4.63;;;15.40;99.90;;;;;;4980024;28;20062;-69
2021/08/09 03:15:06;;;;;;;5.88;5.07;;;15.40;99.90;;;;;;4984012;28;20520;-67
2021/08/09 03:17:33;;;;;;;5.10;4.70;;;15.40;99.90;;;;;;4981569;28;20431;-69
2021/08/09 03:20:01;;;;;;;4.68;4.28;;;15.30;99.90;;;;;;4979472;28;20073;-66
2021/08/09 03:22:28;;;;;;;6.30;5.70;;;15.30;99.90;;;;;;4981083;28;20035;-68
2021/08/09 03:24:55;;;;;;;6.00;4.97;;;15.30;99.90;;;;;;4982650;28;20392;-70
2021/08/09 03:27:22;;;;;;;4.97;4.47;;;15.30;99.90;;;;;;4983587;28;20065;-67
2021/08/09 03:29:49;;;;;;;5.63;5.18;;;15.30;99.90;;;;;;4984571;28;20066;-66
2021/08/09 03:32:16;;;;;;;8.30;5.25;;;15.20;99.90;;;;;;4983880;28;20046;-70
2021/08/09 03:34:44;;;;;;;8.15;5.53;;;15.30;99.90;;;;;;4986069;28;20233;-67
2021/08/09 03:37:11;;;;;;;7.35;6.05;;;15.30;99.90;;;;;;4980091;28;20042;-66
2021/08/09 03:39:38;;;;;;;4.75;4.35;;;15.30;99.90;;;;;;4995670;28;20149;-69
2021/08/09 03:42:05;;;;;;;5.85;5.20;;;15.40;99.90;;;;;;4983400;28;20540;-69
2021/08/09 03:44:32;;;;;;;4.57;4.18;;;15.40;99.90;;;;;;4977975;28;20034;-66
2021/08/09 03:46:59;;;;;;;5.10;4.35;;;15.40;99.90;;;;;;4971329;28;20066;-68
2021/08/09 03:49:26;;;;;;;5.65;5.15;;;15.40;99.90;;;;;;4985321;28;20065;-67
2021/08/09 03:51:53;;;;;;;6.97;5.22;;;15.40;99.90;;;;;;4985153;28;20428;-68
2021/08/09 03:54:20;;;;;;;5.38;4.38;;;15.40;99.90;;;;;;4983907;28;20049;-68
2021/08/09 03:56:47;;;;;;;5.57;5.07;;;15.40;99.90;;;;;;4995456;28;20049;-67
2021/08/09 03:59:14;;;;;;;4.38;4.03;;;15.50;99.90;;;;;;4973879;28;20085;-68
2021/08/09 04:01:42;;;;;;;6.80;4.40;;;15.50;99.90;;;;;;4973520;28;20375;-66
2021/08/09 04:04:09;;;;;;;5.20;4.70;;;15.50;99.90;;;;;;4993819;28;20121;-66
2021/08/09 04:06:36;;;;;;;5.43;4.93;;;15.50;99.90;;;;;;4979584;28;20057;-66
2021/08/09 04:09:06;;;;;;;5.22;4.53;;;15.50;99.90;;;;;;4974499;28;20055;-69
2021/08/09 04:11:35;;;;;;;4.50;4.20;;;15.50;99.90;;;;;;4972287;28;20448;-71
2021/08/09 04:14:04;;;;;;;5.80;5.28;;;15.60;99.90;;;;;;4982293;28;20129;-69
2021/08/09 04:16:31;;;;;;;6.88;4.93;;;15.60;99.90;;;;;;4981054;28;20042;-65
2021/08/09 04:18:58;;;;;;;4.15;3.83;;;15.60;99.90;;;;;;4982871;28;20042;-67
2021/08/09 04:21:25;;;;;;;4.70;4.30;;;15.60;99.90;;;;;;4984598;28;20043;-68
2021/08/09 04:23:53;;;;;;;4.53;4.13;;;15.60;99.90;;;;;;4979521;28;20120;-69
2021/08/09 04:26:21;;;;;;;6.97;4.80;;;15.70;99.90;;;;;;4963224;28;20079;-67
2021/08/09 04:28:48;;;;;;;4.45;4.05;;;15.70;99.90;;;;;;4961851;28;20039;-68
2021/08/09 04:31:17;;;;;;;5.72;4.93;;;15.70;99.90;;;;;;4981847;28;20420;-68
2021/08/09 04:33:48;;;;;;;7.78;4.53;;;15.70;99.90;;;;;;4981356;28;20077;-69
2021/08/09 04:36:15;;;;;;;4.40;4.07;;;15.80;99.90;;;;;;4986322;28;20125;-67
2021/08/09 04:38:42;;;;;;;4.40;4.00;;;15.80;99.90;;;;;;4978005;28;20045;-65
2021/08/09 04:41:12;;;;;;;6.63;5.68;;;15.80;99.90;;;;;;4970239;28;20502;-67
2021/08/09 04:43:41;;;;;;;5.15;4.75;;;15.90;99.90;;;;;;4984020;28;20049;-66
2021/08/09 04:46:11;;;;;;;5.97;5.00;;;15.90;99.90;;;;;;4979981;28;20152;-67
2021/08/09 04:48:40;;;;;;;5.47;4.95;;;16.00;99.90;;;;;;4981650;28;20128;-65
2021/08/09 04:51:07;;;;;;;5.72;5.28;;;16.00;99.90;;;;;;4981550;28;20399;-68
2021/08/09 04:53:34;;;;;;;5.18;3.92;;;16.10;99.90;;;;;;4983770;28;20072;-69
2021/08/09 04:56:01;;;;;;;5.97;4.30;;;16.20;99.90;;;;;;4982721;28;20117;-66
2021/08/09 04:58:35;;;;;;;5.82;5.32;;;16.20;99.90;;;;;;4980025;28;20125;-68
2021/08/09 05:01:02;;;;;;;5.35;4.85;;;16.30;99.90;;;;;;4999031;28;20134;-67
2021/08/09 05:03:39;;;;;;;4.53;4.10;;;16.30;99.90;;;;;;4982269;28;20049;-69
2021/08/09 05:06:11;;;;;;;4.63;4.20;;;16.40;99.90;;;;;;4983851;28;20574;-71
2021/08/09 05:08:41;;;;;;;10.13;4.63;;;16.50;99.90;;;;;;4979941;28;20490;-65
2021/08/09 05:11:11;;;;;;;5.00;4.60;;;16.50;99.90;;;;;;4983687;28;20464;-66
2021/08/09 05:13:48;;;;;;;4.72;4.43;;;16.50;99.90;;;;;;4980286;28;20050;-66
2021/08/09 05:16:16;;;;;;;6.75;3.72;;;16.50;99.90;;;;;;4980671;28;20042;-67
2021/08/09 05:18:43;;;;;;;5.03;4.53;;;16.60;99.90;;;;;;4963849;28;20047;-68
2021/08/09 05:21:10;;;;;;;5.28;4.38;;;16.60;99.90;;;;;;4982666;28;20093;-66
2021/08/09 05:23:37;;;;;;;4.20;3.90;;;16.70;99.90;;;;;;4984133;28;20148;-67
2021/08/09 05:26:03;;;;;;;4.22;3.92;;;16.70;99.90;;;;;;4978656;28;20441;-67
2021/08/09 05:28:30;;;;;;;6.88;3.20;;;16.80;99.90;;;;;;4997442;28;20086;-66
2021/08/09 05:30:57;;;;;;;3.40;2.92;;;16.90;99.90;;;;;;4973086;28;20102;-67
2021/08/09 05:33:25;;;;;;;8.02;3.78;;;16.90;99.90;;;;;;4985787;28;20062;-69
2021/08/09 05:35:52;;;;;;;3.80;3.40;;;16.90;99.90;;;;;;4977864;28;20065;-65
2021/08/09 05:38:19;;;;;;;7.63;4.30;;;16.90;99.90;;;;;;4973252;28;20070;-66
2021/08/09 05:40:47;;;;;;;4.90;3.45;;;17.00;99.90;;;;;;4980956;28;20054;-66
2021/08/09 05:43:14;;;;;;;5.85;3.60;;;17.00;99.90;;;;;;4982502;28;20052;-65
2021/08/09 05:45:40;;;;;;;6.60;3.80;;;17.00;99.90;;;;;;4982615;28;20108;-63
2021/08/09 05:48:08;;;;;;;4.45;3.30;;;17.10;99.90;;;;;;4981737;28;20070;-64
2021/08/09 05:50:35;;;;;;;10.90;5.57;;;17.10;99.90;;;;;;4979359;28;20081;-64
2021/08/09 05:53:05;;;;;;;5.22;3.45;;;17.20;99.90;;;;;;4982054;28;20450;-65
2021/08/09 05:55:34;;;;;;;4.43;2.95;;;17.20;99.90;;;;;;4983070;28;20042;-65
2021/08/09 05:58:05;;;;;;;4.70;3.92;;;17.30;99.90;;;;;;4977476;28;20443;-64
2021/08/09 06:00:34;;;;;;;4.93;3.70;;;17.30;99.90;;;;;;4980951;28;20065;-67
2021/08/09 06:03:04;;;;;;;;;;;17.30;99.90;;;;;;4983656;28;20080;-66
2021/08/09 06:05:41;;;;;;;4.68;3.33;;;17.30;99.90;;;;;;4986760;28;19972;-63
2021/08/09 06:08:10;;;;;;;3.80;3.50;;;17.30;99.90;;;;;;4985062;28;20831;-63
2021/08/09 06:10:38;;;;;;;5.03;3.72;;;17.30;99.90;;;;;;4970272;28;20043;-64
2021/08/09 06:13:09;;;;;;;3.55;3.28;;;17.30;99.90;;;;;;4985395;28;20074;-65
2021/08/09 06:15:37;;;;;;;3.40;3.20;;;17.30;99.90;;;;;;4988259;28;20057;-67
2021/08/09 06:18:05;;;;;;;3.42;3.22;;;17.30;99.90;;;;;;4986330;28;20473;-65
2021/08/09 06:20:32;;;;;;;4.00;3.63;;;17.30;99.90;;;;;;4983333;28;20054;-68
2021/08/09 06:22:59;;;;;;;4.15;3.60;;;17.30;99.90;;;;;;4985871;28;20336;-66
2021/08/09 06:25:27;;;;;;;3.75;3.45;;;17.40;99.90;;;;;;4986709;28;20377;-66
2021/08/09 06:27:54;;;;;;;3.72;3.42;;;17.40;99.90;;;;;;4986563;28;20053;-67
2021/08/09 06:30:22;;;;;;;6.75;3.03;;;17.40;99.90;;;;;;4968637;28;20484;-67
2021/08/09 06:32:50;;;;;;;3.67;3.38;;;17.50;99.90;;;;;;4986995;28;20030;-66
2021/08/09 06:35:19;;;;;;;4.05;3.65;;;17.50;99.90;;;;;;4983861;28;20047;-70
2021/08/09 06:37:46;;;;;;;3.53;3.22;;;17.50;99.90;;;;;;4986001;28;20053;-65
2021/08/09 06:40:15;;;;;;;7.43;4.25;;;17.50;99.90;;;;;;4972170;28;20405;-72
2021/08/09 06:42:45;;;;;;;5.18;3.58;;;17.50;99.90;;;;;;5000280;28;20050;-68
2021/08/09 06:45:32;;;;;;;3.85;3.55;;;17.60;99.90;;;;;;4982800;28;20050;-69
2021/08/09 06:48:01;;;;;;;4.40;4.00;;;17.60;99.90;;;;;;4979089;28;20169;-67
2021/08/09 06:50:28;;;;;;;4.13;3.72;;;17.60;99.90;;;;;;4981925;28;20149;-68
2021/08/09 06:52:55;;;;;;;4.40;3.45;;;17.70;99.90;;;;;;4986770;28;20050;-68
2021/08/09 06:55:23;;;;;;;7.75;4.68;;;17.70;99.90;;;;;;4984254;28;20034;-71
2021/08/09 06:57:50;;;;;;;6.65;4.03;;;17.70;99.90;;;;;;4985854;28;20062;-66
2021/08/09 07:00:18;;;;;;;6.47;4.13;;;17.80;99.90;;;;;;4982482;28;20041;-67
2021/08/09 07:02:45;;;;;;;5.15;3.78;;;17.80;99.90;;;;;;4985732;28;20101;-68
2021/08/09 07:05:12;;;;;;;4.72;2.78;;;17.80;99.90;;;;;;4983814;28;20050;-71
2021/08/09 07:07:44;;;;;;;7.88;5.03;;;17.80;99.90;;;;;;4985528;28;20129;-71
2021/08/09 07:10:11;;;;;;;5.93;3.72;;;17.90;99.90;;;;;;4982772;28;20070;-69
2021/08/09 07:12:39;;;;;;;4.82;4.28;;;17.90;99.90;;;;;;4985646;28;20075;-65
2021/08/09 07:15:07;;;;;;;8.85;5.15;;;17.80;99.90;;;;;;4984127;28;20046;-68
2021/08/09 07:17:41;;;;;;;8.18;3.92;;;17.80;99.90;;;;;;4981985;28;20765;-66
2021/08/09 07:20:14;;;;;;;5.00;4.30;;;17.80;99.90;;;;;;5001806;28;20112;-65
2021/08/09 07:22:44;;;;;;;7.63;5.05;;;17.70;99.90;;;;;;4983140;28;20511;-66
2021/08/09 07:25:15;;;;;;;4.90;4.43;;;17.70;99.90;;;;;;4992022;28;20801;-68
2021/08/09 07:27:45;;;;;;;6.05;5.18;;;17.70;99.90;;;;;;4988662;28;20133;-67
2021/08/09 07:30:14;;;;;;;8.55;5.38;;;17.70;99.90;;;;;;4980375;28;20245;-69
2021/08/09 07:32:43;;;;;;;7.50;4.55;;;17.70;99.90;;;;;;4980637;28;20074;-66
2021/08/09 07:35:12;;;;;;;8.43;5.30;;;17.80;99.90;;;;;;4984047;28;20144;-67
2021/08/09 07:37:41;;;;;;;8.02;4.82;;;17.80;99.90;;;;;;4985099;28;20046;-66
2021/08/09 07:40:09;;;;;;;18.10;7.05;;;17.80;99.90;;;;;;4983841;28;20042;-67
2021/08/09 07:42:36;;;;;;;7.57;4.38;;;18.00;99.90;;;;;;4981699;28;20527;-68
2021/08/09 07:45:04;;;;;;;5.65;4.45;;;18.10;99.90;;;;;;4982788;28;20046;-70
2021/08/09 07:47:31;;;;;;;7.28;4.40;;;18.30;99.90;;;;;;4980934;28;20128;-67
2021/08/09 07:50:01;;;;;;;7.35;3.75;;;18.40;99.90;;;;;;4977691;28;20074;-65
2021/08/09 07:52:29;;;;;;;9.35;5.07;;;18.50;99.90;;;;;;4981654;28;20050;-65
2021/08/09 07:54:56;;;;;;;5.57;4.40;;;18.60;99.90;;;;;;4985477;28;20042;-69
2021/08/09 07:57:24;;;;;;;7.30;4.55;;;18.70;99.90;;;;;;4981611;28;20046;-68
2021/08/09 07:59:53;;;;;;;8.98;4.53;;;18.90;99.90;;;;;;4990954;28;20064;-71
2021/08/09 08:02:20;;;;;;;5.75;4.50;;;19.00;99.90;;;;;;4979249;28;20053;-68
2021/08/09 08:04:48;;;;;;;5.53;3.95;;;19.00;99.90;;;;;;4983000;28;20125;-66
2021/08/09 08:07:17;;;;;;;8.55;4.32;;;19.00;99.90;;;;;;4979765;28;20056;-69
2021/08/09 08:09:44;;;;;;;7.18;4.97;;;19.10;99.90;;;;;;4983754;28;20134;-67
2021/08/09 08:12:11;;;;;;;5.07;4.05;;;19.30;99.90;;;;;;4981814;28;20046;-65
2021/08/09 08:14:40;;;;;;;6.95;4.32;;;19.40;99.90;;;;;;4980695;28;20101;-66
2021/08/09 08:17:08;;;;;;;4.82;3.55;;;19.30;99.90;;;;;;4982528;28;20046;-67
2021/08/09 08:19:35;;;;;;;4.72;3.83;;;19.20;99.90;;;;;;4981663;28;20043;-71
2021/08/09 08:22:03;;;;;;;3.78;3.47;;;19.40;99.90;;;;;;4980482;28;20045;-66
2021/08/09 08:24:32;;;;;;;5.95;3.50;;;19.60;99.90;;;;;;4980946;28;20501;-69
2021/08/09 08:26:59;;;;;;;6.57;3.67;;;19.70;99.90;;;;;;4985089;28;20038;-66
2021/08/09 08:29:26;;;;;;;7.35;4.00;;;19.60;99.90;;;;;;4974598;28;20161;-69
2021/08/09 08:31:53;;;;;;;5.30;4.18;;;19.60;99.90;;;;;;4977981;28;20050;-72
2021/08/09 08:34:20;;;;;;;6.05;4.38;;;19.60;99.90;;;;;;4979105;28;20070;-66
2021/08/09 08:36:48;;;;;;;6.30;4.25;;;19.60;99.90;;;;;;4978013;28;20038;-69
2021/08/09 08:39:16;;;;;;;6.28;4.25;;;19.40;99.90;;;;;;4981477;28;20042;-70
2021/08/09 08:41:45;;;;;;;11.18;5.72;;;19.40;99.90;;;;;;4980329;28;20606;-67
2021/08/09 08:44:18;;;;;;;6.40;3.80;;;19.40;99.90;;;;;;4986800;28;20050;-68
2021/08/09 08:46:47;;;;;;;6.05;4.32;;;19.50;99.90;;;;;;4973076;28;20093;-66
2021/08/09 08:49:15;;;;;;;6.45;4.35;;;19.50;99.90;;;;;;4976128;28;20034;-68
2021/08/09 08:51:45;;;;;;;6.90;3.58;;;19.50;99.90;;;;;;4972272;28;20061;-69
2021/08/09 08:54:13;;;;;;;5.07;3.67;;;19.60;99.90;;;;;;4992968;28;20102;-66
2021/08/09 08:56:42;;;;;;;10.40;3.78;;;19.60;99.90;;;;;;4968988;28;20495;-68
2021/08/09 08:59:15;;;;;;;7.07;4.10;;;19.60;99.90;;;;;;4984787;28;20046;-66
2021/08/09 09:01:45;;;;;;;7.93;3.33;;;19.60;99.90;;;;;;4980909;28;20054;-65
2021/08/09 09:04:39;;;;;;;6.03;3.30;;;19.60;99.90;;;;;;4980750;28;20145;-69
2021/08/09 09:07:07;;;;;;;7.78;3.53;;;19.40;99.90;;;;;;4980924;28;20077;-66
2021/08/09 09:09:38;;;;;;;7.57;4.78;;;19.20;99.90;;;;;;4981451;28;20057;-67
2021/08/09 09:12:13;;;;;;;12.70;4.93;;;19.20;99.90;;;;;;4983613;28;20046;-66
2021/08/09 09:14:40;;;;;;;5.40;3.60;;;19.30;99.90;;;;;;4978710;28;20588;-67
2021/08/09 09:17:07;;;;;;;12.02;4.90;;;19.20;99.90;;;;;;4984491;28;20570;-70
2021/08/09 09:19:40;;;;;;;13.20;4.22;;;19.20;99.90;;;;;;4981027;28;20111;-66
2021/08/09 09:22:27;;;;;;;7.00;4.85;;;19.10;99.90;;;;;;4981708;28;20042;-72
2021/08/09 09:24:55;;;;;;;8.80;4.25;;;19.10;99.90;;;;;;4973773;28;20130;-67
2021/08/09 09:27:34;;;;;;;9.88;3.50;;;19.10;99.90;;;;;;4969662;28;20101;-68
2021/08/09 09:30:26;;;;;;;6.10;4.07;;;19.10;99.90;;;;;;4988573;28;20606;-66
2021/08/09 09:33:01;;;;;;;5.82;3.70;;;19.20;99.90;;;;;;4979532;28;20042;-71
2021/08/09 09:35:28;;;;;;;9.45;4.80;;;19.30;99.90;;;;;;4918082;28;20166;-72
2021/08/09 09:38:08;;;;;;;9.67;4.88;;;19.60;99.90;;;;;;3118249;28;10001727;-68
2021/08/09 09:40:41;;;;;;;7.85;4.65;;;19.70;99.90;;;;;;3266420;28;10001744;-67
2021/08/09 09:43:17;;;;;;;7.40;3.58;;;19.80;99.90;;;;;;4987491;28;20637;-66
2021/08/09 09:45:56;;;;;;;7.10;4.78;;;19.80;99.90;;;;;;4985297;28;20034;-68
2021/08/09 09:48:37;;;;;;;4.82;3.78;;;19.60;99.90;;;;;;4984053;28;20058;-68
2021/08/09 09:51:12;;;;;;;7.38;4.30;;;19.50;99.90;;;;;;4978156;28;20046;-70
2021/08/09 09:53:41;;;;;;;8.55;4.55;;;19.60;99.90;;;;;;4988112;28;20052;-66
2021/08/09 09:56:09;;;;;;;9.05;3.38;;;19.50;99.90;;;;;;4986092;28;20049;-66
2021/08/09 09:58:37;;;;;;;11.07;3.95;;;19.50;99.90;;;;;;4992032;28;20054;-66
2021/08/09 10:01:05;;;;;;;8.35;4.43;;;19.60;99.90;;;;;;4987089;28;20106;-67
2021/08/09 10:03:35;;;;;;;11.07;5.88;;;19.40;99.90;;;;;;4980768;28;20039;-66
2021/08/09 10:06:03;;;;;;;8.77;4.55;;;19.40;99.90;;;;;;4981267;28;20065;-70
2021/08/09 10:08:40;;;;;;;7.18;4.22;;;19.40;99.90;;;;;;4985798;28;20112;-66
2021/08/09 10:11:08;;;;;;;6.03;3.78;;;19.40;99.90;;;;;;4987362;28;20046;-68
2021/08/09 10:13:37;;;;;;;9.60;4.63;;;19.50;99.90;;;;;;4979691;28;20066;-67
2021/08/09 10:16:07;;;;;;;4.93;3.20;;;19.60;99.90;;;;;;4986731;28;20122;-66
2021/08/09 10:18:37;;;;;;;8.38;3.75;;;19.70;99.90;;;;;;4972672;28;20083;-68
2021/08/09 10:21:05;;;;;;;5.78;3.53;;;19.80;99.90;;;;;;4984181;28;20050;-66
2021/08/09 10:23:44;;;;;;;5.90;3.78;;;19.90;99.90;;;;;;4977574;28;20085;-69
2021/08/09 10:26:33;;;;;;;8.55;3.97;;;19.80;99.90;;;;;;4990880;28;20050;-66
2021/08/09 10:29:11;;;;;;;7.65;3.53;;;20.00;99.90;;;;;;4964535;28;20097;-66
2021/08/09 10:31:49;;;;;;;8.65;3.20;;;20.00;99.90;;;;;;4977910;28;20957;-69
2021/08/09 10:34:40;;;;;;;12.02;4.28;;;20.10;99.90;;;;;;4976948;28;20133;-69
2021/08/09 10:37:13;;;;;;;9.35;3.40;;;20.00;99.90;;;;;;4979448;28;20042;-69
2021/08/09 10:40:02;;;;;;;8.85;5.15;;;20.00;99.90;;;;;;5003105;28;20046;-67
2021/08/09 10:42:41;;;;;;;8.70;4.32;;;20.20;99.90;;;;;;4982952;28;20038;-67
2021/08/09 10:45:08;;;;;;;6.40;3.65;;;20.30;99.90;;;;;;4988066;28;20495;-66
2021/08/09 10:47:53;;;;;;;7.18;3.90;;;20.30;99.90;;;;;;4985363;28;20093;-65
2021/08/09 10:50:33;;;;;;;7.28;4.32;;;20.30;99.90;;;;;;4981971;28;20100;-68
2021/08/09 10:53:00;;;;;;;8.38;3.75;;;20.20;99.90;;;;;;4984584;28;20046;-66
2021/08/09 10:55:30;;;;;;;6.60;4.13;;;20.20;99.90;;;;;;4973814;28;20058;-70
2021/08/09 10:58:01;;;;;;;14.00;4.50;;;20.00;99.90;;;;;;4988091;28;20092;-67
2021/08/09 11:00:40;;;;;;;7.22;3.50;;;20.20;99.90;;;;;;4982585;28;20128;-66
2021/08/09 11:03:12;;;;;;;6.60;3.97;;;20.30;99.90;;;;;;4978641;28;20038;-69
2021/08/09 11:05:40;;;;;;;14.63;3.80;;;20.40;99.90;;;;;;5000627;28;20089;-66
2021/08/09 11:08:16;;;;;;;7.10;4.32;;;20.50;99.90;;;;;;4983520;28;20077;-69
2021/08/09 11:10:54;;;;;;;5.47;3.55;;;20.60;99.90;;;;;;4982536;28;20408;-67
2021/08/09 11:13:26;;;;;;;6.07;3.83;;;20.90;99.90;;;;;;4983532;28;20047;-67
2021/08/09 11:15:57;;;;;;;7.38;3.35;;;21.10;99.90;;;;;;4985835;28;20182;-68
2021/08/09 11:18:25;;;;;;;6.55;3.67;;;21.10;99.90;;;;;;4983657;28;20050;-70
2021/08/09 11:21:04;;;;;;;4.18;2.55;;;21.20;99.90;;;;;;4985708;28;20066;-67
2021/08/09 11:23:42;;;;;;;6.30;3.40;;;21.40;99.90;;;;;;4984469;28;20073;-68
2021/08/09 11:26:24;;;;;;;7.43;3.38;;;21.40;99.90;;;;;;4993564;28;20038;-69
2021/08/09 11:29:03;;;;;;;7.68;3.17;;;21.30;99.90;;;;;;4986733;28;20046;-65
2021/08/09 11:31:47;;;;;;;5.00;2.63;;;21.30;99.90;;;;;;4984322;28;20372;-67
2021/08/09 11:34:15;;;;;;;7.13;5.03;;;21.30;99.90;;;;;;4986314;28;20125;-69
2021/08/09 11:36:42;;;;;;;7.15;2.47;;;21.20;99.90;;;;;;4981445;28;20125;-68
2021/08/09 11:39:13;;;;;;;6.05;3.55;;;21.20;99.90;;;;;;4984216;28;20389;-69
2021/08/09 11:41:40;;;;;;;7.80;3.22;;;21.00;99.90;;;;;;4983885;28;20065;-65
2021/08/09 11:44:09;;;;;;;6.28;3.92;;;20.90;99.90;;;;;;4990466;28;20491;-68
2021/08/09 11:46:46;;;;;;;9.25;3.60;;;20.90;99.90;;;;;;4982333;28;20223;-66
2021/08/09 11:49:14;;;;;;;7.32;4.38;;;20.80;99.90;;;;;;4986530;28;20054;-66
2021/08/09 11:51:41;;;;;;;7.45;5.35;;;20.80;99.90;;;;;;4983095;28;20069;-68
2021/08/09 11:54:08;;;;;;;8.38;3.40;;;20.80;99.90;;;;;;4977814;28;20381;-67
2021/08/09 11:56:39;;;;;;;5.60;3.22;;;20.90;99.90;;;;;;4984315;28;25143;-69
2021/08/09 11:59:14;;;;;;;7.18;3.45;;;20.80;99.90;;;;;;4997986;28;20066;-68
2021/08/09 12:01:47;;;;;;;10.13;4.57;;;20.90;99.90;;;;;;4985441;28;20127;-66
2021/08/09 12:04:19;;;;;;;8.70;3.78;;;21.00;99.90;;;;;;4982091;28;20109;-70
2021/08/09 12:06:48;;;;;;;9.82;4.25;;;20.80;99.90;;;;;;4984342;28;20045;-67
2021/08/09 12:09:17;;;;;;;4.22;3.33;;;20.80;99.90;;;;;;4983996;28;20669;-67
2021/08/09 12:12:17;;;;;;;9.02;3.88;;;20.80;99.90;;;;;;4985739;28;20042;-68
2021/08/09 12:15:02;;;;;;;8.63;3.88;;;20.80;99.90;;;;;;4972047;28;20048;-67
2021/08/09 12:17:30;;;;;;;6.65;4.13;;;20.80;99.90;;;;;;4977676;28;20065;-67
2021/08/09 12:20:13;;;;;;;6.78;4.35;;;20.80;99.90;;;;;;4983924;28;20046;-70
2021/08/09 12:22:40;;;;;;;6.32;4.03;;;20.80;99.90;;;;;;4981399;28;20156;-69
2021/08/09 12:25:22;;;;;;;6.65;5.05;;;20.70;99.90;;;;;;4981597;28;20042;-66
2021/08/09 12:28:00;;;;;;;7.18;4.28;;;20.80;99.90;;;;;;4981100;28;20062;-68
2021/08/09 12:30:27;;;;;;;11.98;5.00;;;20.80;99.90;;;;;;4984040;28;20531;-70
2021/08/09 12:33:06;;;;;;;13.80;4.63;;;20.80;99.90;;;;;;4977758;28;20504;-65
2021/08/09 12:35:37;;;;;;;12.90;5.03;;;20.90;99.90;;;;;;4985259;28;20345;-70
2021/08/09 12:38:06;;;;;;;4.25;3.35;;;21.20;99.90;;;;;;4983767;28;20104;-67
2021/08/09 12:40:40;;;;;;;4.57;2.92;;;21.60;99.90;;;;;;4981122;28;20088;-66
2021/08/09 12:43:15;;;;;;;5.63;3.45;;;21.90;99.90;;;;;;4967368;28;20051;-71
2021/08/09 12:45:43;;;;;;;6.20;4.22;;;22.00;99.90;;;;;;4964024;28;20592;-66
2021/08/09 12:48:11;;;;;;;7.20;3.42;;;21.70;99.90;;;;;;4972254;28;20162;-66
2021/08/09 12:50:39;;;;;;;11.05;4.32;;;21.60;99.90;;;;;;4981984;28;20136;-66
2021/08/09 12:53:08;;;;;;;;;;;21.70;99.90;;;;;;4978625;28;20088;-67
2021/08/09 12:55:36;;;;;;;14.15;6.72;;;21.60;99.90;;;;;;4974296;28;19953;-67
2021/08/09 12:58:05;;;;;;;8.93;5.45;;;21.60;99.90;;;;;;4981275;28;20145;-66
2021/08/09 13:00:33;;;;;;;8.32;3.95;;;21.40;99.90;;;;;;4984816;28;20047;-66
2021/08/09 13:03:00;;;;;;;5.68;4.20;;;21.70;99.90;;;;;;4983006;28;20038;-69
2021/08/09 13:05:30;;;;;;;4.93;3.83;;;21.90;99.90;;;;;;4973081;28;20068;-66